Airport Name : Pafos Intl

Other Name : Pafos Intl

ICAO : LCPH

IATA : PFO

FAA :

Latitude : 34.718039

Longitude : 32.485731

Country : Cyprus

Local Date and Time : 1/23/2018 7:30:00 AM

 

TAF (Terminal Aerodrome Forecast)

TAF LCPH 230530Z 2306/2406 27022G37KT 9999 FEW020 SCT025 PROB30 TEMPO 2306/2308 4000 SHRA FEW030CB BECMG 2309/2312 33016KT BECMG 2320/2323 03008KT PROB30 TEMPO 2402/2406 5000 SHRA

 

METAR (METeorological Aerodrome Report)

LCPH 230500Z 28028KT 5000 -SHRA SCT020 FEW025TCU BKN040 16/11 Q1003

LCPH 230430Z 27026G36KT 6000 -SHRA SCT015 FEW020TCU BKN040 15/12 Q1003 RERA

LCPH 230400Z 26025G35KT 6000 -SHRA SCT015 FEW020TCU BKN040 16/12 Q1002 RERA

LCPH 230330Z 25030G40KT 6000 -SHRA SCT015 FEW020TCU BKN040 15/12 Q1002 RERA

LCPH 230300Z 25022G35KT 2000 +SHRA SCT015 FEW020TCU BKN040 14/12 Q1002

LCPH 230230Z AUTO 25022G32KT 9999 FEW022 SCT049 15/12 Q1002

LCPH 230200Z AUTO 24018G29KT 5000 FEW047 15/11 Q1002